Webcam & Weather

This webcam image will automatically refresh every 15 seconds.


METAR and TAF for EGLL Heathrow (12 Nautical Miles East of White Waltham)

Available data for EGLL from the past hour
LONDON/HEATHROW
Metar
EGLL 171850Z AUTO 23012KT 9999 FEW044 19/09 Q1016 NOSIG

18:50 UTC

Wind: 230° 12kt

Visibility: 9999 m

Sky: FEW 4400 ft

Temp: 19 deg C / 66.2 deg F

Dewpoint: 9 deg C / 48.2 deg F

Pressure: 1016 hPa

TAF
TAF EGLL 171701Z 1718/1824 23010KT 9999 FEW045 PROB30 1800/1805 6000 BKN005 BECMG 1811/1814 09005KT TEMPO 1811/1824 6000 RA SHRA BKN012 PROB30 TEMPO 1820/1824 4000 +SHRA TSRA BKN009 BKN040CB

Play 24 hour timelapse | Play 30 day timelapse

Comments are closed.